Time;durP1;ratioP1;P1;durP2;ratioP2;P2;SDS_P1;SDS_P2;PMS_P1;PMS_P2;Temp;Humidity;BMP_temperature;BMP_pressure;BME280_temperature;BME280_humidity;BME280_pressure;Samples;Min_cycle;Max_cycle;Signal;HPM_P1;HPM_P2
2021/04/30 00:01:21;;;;;;;33.85;15.40;;;6.90;99.90;;;;;;5010676;28;20057;-79
2021/04/30 00:03:46;;;;;;;31.08;16.30;;;6.90;99.90;;;;;;5010719;28;20125;-79
2021/04/30 00:06:12;;;;;;;25.85;16.63;;;7.00;99.90;;;;;;4993933;28;20068;-78
2021/04/30 00:08:39;;;;;;;28.30;15.85;;;7.00;99.90;;;;;;5010412;28;20029;-78
2021/04/30 00:11:07;;;;;;;29.60;16.33;;;7.00;99.90;;;;;;5025380;28;20030;-78
2021/04/30 00:13:36;;;;;;;27.63;16.40;;;7.00;99.90;;;;;;5052532;28;20057;-79
2021/04/30 00:16:03;;;;;;;27.35;14.30;;;7.00;99.90;;;;;;5033026;28;20028;-79
2021/04/30 00:18:29;;;;;;;29.33;17.48;;;7.00;99.90;;;;;;5066317;28;20036;-78
2021/04/30 00:20:56;;;;;;;36.90;16.88;;;7.00;99.90;;;;;;5033303;28;20067;-79
2021/04/30 00:23:25;;;;;;;33.30;16.23;;;7.00;99.90;;;;;;5033301;28;20021;-79
2021/04/30 00:25:53;;;;;;;25.95;14.90;;;7.00;99.90;;;;;;5049494;28;20051;-79
2021/04/30 00:28:19;;;;;;;31.42;15.73;;;7.10;99.90;;;;;;5049634;28;20036;-79
2021/04/30 00:30:45;;;;;;;27.02;15.77;;;7.10;99.90;;;;;;5049601;28;20036;-79
2021/04/30 00:33:11;;;;;;;31.27;15.75;;;7.10;99.90;;;;;;5049399;28;20036;-79
2021/04/30 00:35:37;;;;;;;28.92;16.75;;;7.10;99.90;;;;;;5049153;28;20055;-79
2021/04/30 00:38:04;;;;;;;31.13;15.25;;;7.10;99.90;;;;;;5049494;28;20028;-79
2021/04/30 00:40:29;;;;;;;25.30;14.30;;;7.10;99.90;;;;;;5049305;28;20036;-79
2021/04/30 00:42:56;;;;;;;28.73;15.48;;;7.10;99.90;;;;;;5048112;28;20041;-79
2021/04/30 00:45:23;;;;;;;23.63;14.48;;;7.10;99.90;;;;;;5032766;28;20032;-79
2021/04/30 00:47:50;;;;;;;20.63;13.48;;;7.10;99.90;;;;;;5048943;28;20043;-79
2021/04/30 00:50:17;;;;;;;27.20;14.80;;;7.10;99.90;;;;;;5049150;28;20048;-79
2021/04/30 00:52:43;;;;;;;23.88;13.18;;;7.10;99.90;;;;;;5067062;28;20033;-79
2021/04/30 00:55:11;;;;;;;26.15;14.23;;;7.10;99.90;;;;;;5067150;28;20051;-79
2021/04/30 00:57:39;;;;;;;26.10;14.63;;;7.10;99.90;;;;;;5048904;28;20040;-78
2021/04/30 01:00:07;;;;;;;28.67;15.88;;;7.10;99.90;;;;;;5048942;28;20040;-79
2021/04/30 01:02:33;;;;;;;26.63;15.90;;;7.20;99.90;;;;;;5065464;28;20268;-79
2021/04/30 01:05:00;;;;;;;38.60;16.42;;;7.10;99.90;;;;;;5032674;28;20290;-78
2021/04/30 01:07:26;;;;;;;28.23;14.60;;;7.10;99.90;;;;;;5032255;28;20473;-78
2021/04/30 01:09:51;;;;;;;25.52;16.50;;;7.10;99.90;;;;;;5032440;28;20100;-79
2021/04/30 01:12:17;;;;;;;20.02;12.13;;;7.10;99.90;;;;;;5048719;28;20043;-78
2021/04/30 01:14:44;;;;;;;28.48;14.75;;;7.10;99.90;;;;;;5066914;28;20039;-78
2021/04/30 01:17:09;;;;;;;29.15;15.05;;;7.20;99.90;;;;;;5048519;28;20128;-79
2021/04/30 01:19:35;;;;;;;32.63;15.25;;;7.20;99.90;;;;;;5048722;28;20032;-79
2021/04/30 01:22:01;;;;;;;34.60;15.27;;;7.20;99.90;;;;;;5048708;28;20046;-79
2021/04/30 01:24:27;;;;;;;31.80;15.93;;;7.20;99.90;;;;;;5048700;28;20028;-79
2021/04/30 01:26:54;;;;;;;36.00;15.68;;;7.20;99.90;;;;;;5048637;28;20120;-79
2021/04/30 01:29:20;;;;;;;30.92;16.05;;;7.20;99.90;;;;;;5032030;28;20029;-79
2021/04/30 01:31:45;;;;;;;29.05;16.38;;;7.20;99.90;;;;;;5048666;28;20462;-79
2021/04/30 01:34:12;;;;;;;33.47;16.30;;;7.20;99.90;;;;;;5028521;28;20074;-78
2021/04/30 01:36:38;;;;;;;29.13;15.13;;;7.20;99.90;;;;;;5012293;28;20032;-79
2021/04/30 01:39:08;;;;;;;29.15;14.82;;;7.20;99.90;;;;;;5028488;28;20028;-79
2021/04/30 01:41:35;;;;;;;27.63;15.63;;;7.10;99.90;;;;;;5028561;28;20026;-79
2021/04/30 01:44:01;;;;;;;39.53;15.75;;;7.20;99.90;;;;;;5039640;28;20028;-79
2021/04/30 01:46:26;;;;;;;29.42;16.85;;;7.10;99.90;;;;;;5031837;28;20086;-78
2021/04/30 01:48:52;;;;;;;31.02;15.55;;;7.20;99.90;;;;;;5047983;28;20032;-79
2021/04/30 01:51:18;;;;;;;30.85;16.38;;;7.20;99.90;;;;;;5031812;28;20029;-78
2021/04/30 01:53:44;;;;;;;30.63;15.23;;;7.20;99.90;;;;;;5031262;28;20033;-78
2021/04/30 01:56:11;;;;;;;35.28;16.75;;;7.20;99.90;;;;;;5031713;28;20039;-79
2021/04/30 01:58:38;;;;;;;30.10;15.23;;;7.20;99.90;;;;;;5048007;28;20040;-78
2021/04/30 02:01:05;;;;;;;35.22;17.27;;;7.20;99.90;;;;;;5066327;28;20143;-79
2021/04/30 02:03:31;;;;;;;30.25;16.48;;;7.20;99.90;;;;;;5065808;28;20052;-78
2021/04/30 02:05:56;;;;;;;30.42;14.07;;;7.20;99.90;;;;;;5047614;28;20493;-78
2021/04/30 02:08:22;;;;;;;28.52;14.45;;;7.20;99.90;;;;;;5047552;28;20036;-78
2021/04/30 02:10:51;;;;;;;24.95;12.63;;;7.20;99.90;;;;;;5064415;28;20512;-79
2021/04/30 02:13:19;;;;;;;30.17;15.38;;;7.20;99.90;;;;;;5031209;28;20056;-79
2021/04/30 02:15:46;;;;;;;23.45;12.18;;;7.20;99.90;;;;;;5047779;28;20025;-79
2021/04/30 02:18:13;;;;;;;33.20;17.10;;;7.20;99.90;;;;;;5047423;28;20035;-79
2021/04/30 02:20:39;;;;;;;28.13;15.40;;;7.30;99.90;;;;;;5047539;28;20040;-79
2021/04/30 02:23:05;;;;;;;28.52;15.32;;;7.30;99.90;;;;;;5064139;28;20033;-79
2021/04/30 02:25:30;;;;;;;26.02;13.55;;;7.20;99.90;;;;;;5065374;28;20526;-79
2021/04/30 02:27:58;;;;;;;36.15;18.15;;;7.20;99.90;;;;;;5047376;28;20032;-79
2021/04/30 02:30:25;;;;;;;38.55;17.77;;;7.20;99.90;;;;;;5030992;28;20060;-79
2021/04/30 02:32:52;;;;;;;30.00;14.80;;;7.30;99.90;;;;;;5030911;28;20398;-79
2021/04/30 02:35:24;;;;;;;28.58;15.82;;;7.20;99.90;;;;;;5043773;28;20026;-78
2021/04/30 02:37:51;;;;;;;27.00;13.98;;;7.30;99.90;;;;;;5027554;28;20034;-79
2021/04/30 02:40:21;;;;;;;24.80;13.70;;;7.30;99.90;;;;;;5027731;28;20037;-79
2021/04/30 02:42:47;;;;;;;17.83;12.35;;;7.30;99.90;;;;;;5028589;28;20033;-78
2021/04/30 02:45:15;;;;;;;26.60;12.30;;;7.30;99.90;;;;;;5064023;28;20041;-79
2021/04/30 02:47:45;;;;;;;28.83;13.05;;;7.30;99.90;;;;;;5065056;28;20041;-79
2021/04/30 02:50:11;;;;;;;24.65;12.32;;;7.30;99.90;;;;;;5047278;28;20092;-79
2021/04/30 02:52:37;;;;;;;25.70;12.45;;;7.30;99.90;;;;;;5065273;28;20055;-78
2021/04/30 02:55:04;;;;;;;22.83;12.98;;;7.30;99.90;;;;;;5047384;28;20025;-79
2021/04/30 02:57:32;;;;;;;34.47;16.17;;;7.30;99.90;;;;;;5047206;28;20092;-78
2021/04/30 02:59:58;;;;;;;25.65;13.57;;;7.30;99.90;;;;;;5047113;28;20036;-79
2021/04/30 03:02:24;;;;;;;28.08;14.38;;;7.30;99.90;;;;;;5047646;28;20021;-79
2021/04/30 03:04:50;;;;;;;25.55;12.75;;;7.20;99.90;;;;;;5064956;28;20036;-79
2021/04/30 03:07:15;;;;;;;30.23;14.93;;;7.30;99.90;;;;;;5049883;28;20045;-79
2021/04/30 03:09:41;;;;;;;29.15;15.10;;;7.20;99.90;;;;;;5034493;28;20025;-79
2021/04/30 03:12:07;;;;;;;29.23;13.95;;;7.30;99.90;;;;;;5068810;28;20457;-79
2021/04/30 03:14:32;;;;;;;29.15;14.32;;;7.30;99.90;;;;;;5034482;28;20115;-79
2021/04/30 03:16:58;;;;;;;24.67;12.88;;;7.30;99.90;;;;;;5050943;28;20512;-79
2021/04/30 03:19:24;;;;;;;23.00;12.65;;;7.30;99.90;;;;;;5068806;28;20119;-79
2021/04/30 03:21:49;;;;;;;24.40;12.32;;;7.20;99.90;;;;;;5067544;28;20102;-78
2021/04/30 03:24:15;;;;;;;20.15;10.80;;;7.30;99.90;;;;;;5034474;28;20454;-78
2021/04/30 03:26:40;;;;;;;17.65;11.07;;;7.30;99.90;;;;;;5050774;28;20045;-79
2021/04/30 03:29:06;;;;;;;20.10;14.05;;;7.20;99.90;;;;;;5050533;28;20027;-78
2021/04/30 03:31:32;;;;;;;25.48;13.63;;;7.20;99.90;;;;;;5050837;28;20037;-79
2021/04/30 03:33:58;;;;;;;22.48;12.77;;;7.30;99.90;;;;;;5050590;28;20025;-78
2021/04/30 03:36:24;;;;;;;22.80;12.20;;;7.30;99.90;;;;;;5050241;28;20033;-78
2021/04/30 03:38:50;;;;;;;19.02;11.68;;;7.30;99.90;;;;;;5050568;28;20021;-78
2021/04/30 03:41:16;;;;;;;20.73;11.68;;;7.30;99.90;;;;;;5050757;28;20040;-78
2021/04/30 03:43:43;;;;;;;20.65;10.77;;;7.30;99.90;;;;;;5047134;28;20097;-79
2021/04/30 03:46:09;;;;;;;23.90;12.95;;;7.30;99.90;;;;;;5030439;28;20049;-78
2021/04/30 03:48:35;;;;;;;30.65;14.50;;;7.30;99.90;;;;;;5048340;28;20049;-78
2021/04/30 03:51:01;;;;;;;25.65;13.02;;;7.30;99.90;;;;;;5030507;28;20033;-79
2021/04/30 03:53:27;;;;;;;20.88;13.18;;;7.30;99.90;;;;;;5030559;28;20049;-78
2021/04/30 03:55:53;;;;;;;23.67;12.55;;;7.30;99.90;;;;;;5046879;28;20029;-78
2021/04/30 03:58:19;;;;;;;24.10;11.85;;;7.30;99.90;;;;;;5048164;28;20029;-78
2021/04/30 04:00:45;;;;;;;28.20;12.70;;;7.30;99.90;;;;;;5014207;28;20036;-78
2021/04/30 04:03:11;;;;;;;28.10;12.63;;;7.30;99.90;;;;;;5048198;28;20449;-78
2021/04/30 04:05:56;;;;;;;27.58;12.35;;;7.30;99.90;;;;;;5048188;28;20445;-80
2021/04/30 04:08:22;;;;;;;31.50;13.98;;;7.30;99.90;;;;;;4930156;29;20079;-81
2021/04/30 04:10:48;;;;;;;21.92;10.68;;;7.30;99.90;;;;;;4935968;29;20040;-80
2021/04/30 04:13:24;;;;;;;27.52;12.55;;;7.30;99.90;;;;;;4937932;29;20104;-81
2021/04/30 04:15:51;;;;;;;23.88;13.88;;;7.30;99.90;;;;;;4913460;29;20532;-80
2021/04/30 04:18:18;;;;;;;21.13;10.48;;;7.30;99.90;;;;;;4897163;29;20036;-80
2021/04/30 04:20:44;;;;;;;22.85;12.07;;;7.30;99.90;;;;;;4913048;29;20051;-80
2021/04/30 04:23:10;;;;;;;22.00;10.57;;;7.30;99.90;;;;;;4929591;29;20040;-80
2021/04/30 04:25:37;;;;;;;22.23;11.82;;;7.30;99.90;;;;;;4928825;29;20096;-80
2021/04/30 04:28:03;;;;;;;20.33;10.85;;;7.40;99.90;;;;;;4912809;29;20040;-80
2021/04/30 04:30:29;;;;;;;18.50;9.90;;;7.40;99.90;;;;;;4912980;29;20048;-80
2021/04/30 04:32:55;;;;;;;25.73;12.93;;;7.40;99.90;;;;;;4912922;29;20079;-80
2021/04/30 04:35:21;;;;;;;20.55;11.48;;;7.40;99.90;;;;;;4912162;29;20037;-80
2021/04/30 04:37:47;;;;;;;21.40;12.02;;;7.40;99.90;;;;;;4894009;29;20338;-80
2021/04/30 04:40:13;;;;;;;22.77;11.40;;;7.50;99.90;;;;;;4893428;29;20053;-80
2021/04/30 04:42:39;;;;;;;19.83;11.00;;;7.50;99.90;;;;;;4893230;29;20036;-80
2021/04/30 04:45:07;;;;;;;18.42;10.23;;;7.50;99.90;;;;;;4939317;28;20062;-80
2021/04/30 04:47:32;;;;;;;19.33;10.82;;;7.50;99.90;;;;;;4989519;28;20054;-80
2021/04/30 04:49:58;;;;;;;22.95;11.32;;;7.50;99.90;;;;;;4973366;28;20033;-80
2021/04/30 04:52:23;;;;;;;21.17;10.63;;;7.60;99.90;;;;;;4973543;28;20035;-81
2021/04/30 04:54:49;;;;;;;22.00;11.23;;;7.60;99.90;;;;;;4973561;28;20030;-80
2021/04/30 04:57:15;;;;;;;24.80;12.80;;;7.60;99.90;;;;;;4989803;28;20030;-80
2021/04/30 04:59:40;;;;;;;23.98;12.82;;;7.60;99.90;;;;;;4989537;28;20026;-80
2021/04/30 05:02:06;;;;;;;27.13;11.95;;;7.50;99.90;;;;;;4973239;28;20317;-81
2021/04/30 05:04:31;;;;;;;23.67;12.15;;;7.60;99.90;;;;;;4973701;28;20030;-81
2021/04/30 05:06:57;;;;;;;21.60;11.20;;;7.60;99.90;;;;;;4972879;28;20042;-80
2021/04/30 05:09:24;;;;;;;20.55;12.63;;;7.60;99.90;;;;;;4973198;28;20501;-80
2021/04/30 05:11:50;;;;;;;19.60;11.73;;;7.60;99.90;;;;;;4973137;28;20030;-80
2021/04/30 05:14:16;;;;;;;24.27;12.32;;;7.70;99.90;;;;;;5022946;28;20045;-80
2021/04/30 05:16:41;;;;;;;26.25;13.13;;;7.70;99.90;;;;;;5024899;28;20512;-80
2021/04/30 05:19:07;;;;;;;17.30;11.45;;;7.70;99.90;;;;;;5041546;28;20032;-80
2021/04/30 05:21:34;;;;;;;19.83;12.30;;;7.70;99.90;;;;;;5025104;28;20282;-80
2021/04/30 05:24:00;;;;;;;19.45;11.38;;;7.80;99.90;;;;;;5025100;28;20048;-80
2021/04/30 05:26:29;;;;;;;20.42;11.93;;;7.80;99.90;;;;;;5024418;28;20066;-80
2021/04/30 05:28:56;;;;;;;28.77;13.77;;;7.70;99.90;;;;;;5007547;28;20021;-81
2021/04/30 05:31:22;;;;;;;24.38;13.93;;;7.70;99.90;;;;;;5024595;28;20072;-80
2021/04/30 05:33:47;;;;;;;27.83;14.52;;;7.80;99.90;;;;;;5009337;28;20037;-80
2021/04/30 05:36:13;;;;;;;22.75;13.10;;;7.80;99.90;;;;;;5040614;28;20089;-80
2021/04/30 05:38:39;;;;;;;22.20;13.43;;;7.80;99.90;;;;;;5024232;28;20482;-80
2021/04/30 05:41:04;;;;;;;25.38;14.48;;;7.80;99.90;;;;;;5024259;28;20030;-80
2021/04/30 05:43:30;;;;;;;27.25;16.23;;;7.90;99.90;;;;;;5032677;28;20083;-80
2021/04/30 05:45:56;;;;;;;24.67;15.35;;;8.00;99.90;;;;;;5045384;28;20401;-80
2021/04/30 05:48:21;;;;;;;20.80;13.55;;;8.10;99.90;;;;;;5027504;28;20037;-80
2021/04/30 05:50:47;;;;;;;21.25;12.85;;;8.20;99.90;;;;;;5027554;28;20040;-80
2021/04/30 05:53:13;;;;;;;26.30;12.77;;;8.30;99.90;;;;;;5044686;28;20029;-81
2021/04/30 05:55:38;;;;;;;26.65;13.85;;;8.20;99.90;;;;;;5028865;28;20051;-80
2021/04/30 05:58:04;;;;;;;27.13;14.65;;;8.10;99.90;;;;;;5044471;28;20029;-81
2021/04/30 06:00:30;;;;;;;31.38;15.23;;;8.10;99.90;;;;;;5044857;28;20037;-80
2021/04/30 06:02:55;;;;;;;27.85;13.68;;;8.10;99.90;;;;;;5015055;28;20054;-80
2021/04/30 06:05:21;;;;;;;21.80;11.35;;;8.20;99.90;;;;;;5036111;28;20034;-79
2021/04/30 06:07:47;;;;;;;26.80;13.13;;;8.20;99.90;;;;;;5030352;28;20050;-79
2021/04/30 06:10:13;;;;;;;28.42;12.95;;;8.10;99.90;;;;;;5037464;28;20060;-80
2021/04/30 06:12:38;;;;;;;24.50;13.13;;;8.00;99.90;;;;;;5027072;28;20546;-80
2021/04/30 06:15:05;;;;;;;25.73;13.20;;;8.10;99.90;;;;;;5032767;28;20030;-79
2021/04/30 06:17:31;;;;;;;23.20;13.02;;;8.20;99.90;;;;;;5026048;28;20038;-80
2021/04/30 06:19:56;;;;;;;25.35;13.00;;;8.20;99.90;;;;;;5035804;28;20041;-79
2021/04/30 06:22:22;;;;;;;22.88;12.45;;;8.20;99.90;;;;;;5019782;28;20033;-80
2021/04/30 06:24:48;;;;;;;23.20;12.65;;;8.30;99.90;;;;;;5033639;28;20442;-80
2021/04/30 06:27:15;;;;;;;28.48;14.63;;;8.30;99.90;;;;;;5033597;28;20092;-80
2021/04/30 06:29:40;;;;;;;28.08;14.98;;;8.30;99.90;;;;;;5035867;28;20037;-79
2021/04/30 06:32:07;;;;;;;22.15;11.73;;;8.20;99.90;;;;;;5028428;28;20049;-79
2021/04/30 06:34:32;;;;;;;32.03;16.92;;;8.30;99.90;;;;;;5032482;28;20030;-80
2021/04/30 06:36:58;;;;;;;31.65;16.92;;;8.30;99.90;;;;;;5030446;28;20073;-80
2021/04/30 06:39:24;;;;;;;29.73;16.50;;;8.30;99.90;;;;;;5030494;28;20112;-80
2021/04/30 06:41:51;;;;;;;26.05;15.27;;;8.40;99.90;;;;;;5032098;28;20398;-80
2021/04/30 06:44:16;;;;;;;27.05;15.23;;;8.40;99.90;;;;;;5037914;28;20026;-80
2021/04/30 06:46:42;;;;;;;28.02;15.25;;;8.60;99.90;;;;;;5044757;28;20462;-80
2021/04/30 06:49:08;;;;;;;21.10;13.20;;;8.70;99.90;;;;;;5034602;28;20111;-82
2021/04/30 06:51:34;;;;;;;29.58;16.27;;;8.70;99.90;;;;;;5029606;28;20048;-80
2021/04/30 06:54:01;;;;;;;21.08;13.63;;;8.60;99.90;;;;;;5041764;28;20033;-80
2021/04/30 06:56:31;;;;;;;26.35;16.38;;;8.70;99.90;;;;;;5043990;28;20030;-80
2021/04/30 06:58:57;;;;;;;31.02;18.58;;;8.70;99.90;;;;;;5042210;28;20037;-80
2021/04/30 07:01:23;;;;;;;27.02;17.17;;;8.70;99.90;;;;;;5021276;28;20030;-81
2021/04/30 07:03:49;;;;;;;30.02;18.52;;;8.70;99.90;;;;;;5050450;28;20061;-79
2021/04/30 07:06:15;;;;;;;29.73;16.52;;;8.80;99.90;;;;;;5038582;28;20029;-79
2021/04/30 07:08:41;;;;;;;26.40;16.02;;;8.90;99.90;;;;;;5036240;28;20029;-79
2021/04/30 07:11:07;;;;;;;30.23;17.13;;;9.10;99.90;;;;;;5038778;28;20034;-79
2021/04/30 07:13:36;;;;;;;28.98;17.40;;;9.00;99.90;;;;;;5038700;28;20053;-79
2021/04/30 07:16:03;;;;;;;23.45;16.55;;;9.00;99.90;;;;;;5037753;28;20398;-79
2021/04/30 07:18:29;;;;;;;26.95;16.17;;;9.20;99.90;;;;;;5040803;28;20034;-79
2021/04/30 07:20:54;;;;;;;24.95;14.88;;;9.30;99.90;;;;;;5037125;28;20105;-79
2021/04/30 07:23:20;;;;;;;24.38;16.88;;;9.30;99.90;;;;;;5043048;28;20037;-79
2021/04/30 07:25:46;;;;;;;31.13;17.27;;;9.30;99.90;;;;;;5041502;28;20034;-79
2021/04/30 07:28:11;;;;;;;27.05;17.30;;;9.30;99.90;;;;;;5042482;28;20044;-79
2021/04/30 07:30:37;;;;;;;24.35;17.25;;;9.20;99.90;;;;;;5030496;28;20022;-79
2021/04/30 07:33:03;;;;;;;27.63;17.85;;;9.50;99.90;;;;;;5037809;28;20402;-79
2021/04/30 07:35:29;;;;;;;34.25;18.52;;;9.40;99.90;;;;;;5061260;28;20052;-79
2021/04/30 07:37:55;;;;;;;26.40;17.75;;;9.20;99.90;;;;;;5042913;28;20029;-79
2021/04/30 07:40:20;;;;;;;28.92;16.58;;;9.10;99.90;;;;;;5027225;28;20041;-79
2021/04/30 07:42:46;;;;;;;27.45;17.00;;;9.20;99.90;;;;;;5038732;28;20441;-79
2021/04/30 07:45:12;;;;;;;28.05;17.27;;;9.10;99.90;;;;;;5042508;28;20049;-79
2021/04/30 07:47:38;;;;;;;21.75;14.18;;;9.20;99.90;;;;;;5041049;28;20044;-79
2021/04/30 07:50:05;;;;;;;33.45;20.17;;;9.30;99.90;;;;;;5030195;28;20056;-79
2021/04/30 07:52:31;;;;;;;25.60;16.20;;;9.10;99.90;;;;;;5036585;28;20085;-79
2021/04/30 07:55:00;;;;;;;29.02;17.48;;;9.10;99.90;;;;;;5036459;28;20088;-79
2021/04/30 07:57:27;;;;;;;30.88;18.33;;;9.20;99.90;;;;;;5035230;28;20037;-79
2021/04/30 07:59:52;;;;;;;24.15;16.98;;;9.10;99.90;;;;;;5044571;28;20021;-79
2021/04/30 08:02:18;;;;;;;24.90;16.40;;;9.20;99.90;;;;;;4999310;28;20467;-79
2021/04/30 08:04:44;;;;;;;25.55;15.55;;;9.30;99.90;;;;;;5024030;28;20026;-79
2021/04/30 08:07:09;;;;;;;23.38;16.15;;;9.40;99.90;;;;;;5043418;28;20033;-79
2021/04/30 08:09:35;;;;;;;24.83;15.55;;;9.40;99.90;;;;;;5040794;28;20037;-79
2021/04/30 08:12:00;;;;;;;23.33;16.27;;;9.50;99.90;;;;;;5031879;28;20022;-79
2021/04/30 08:14:26;;;;;;;22.20;14.77;;;9.40;99.90;;;;;;5038355;28;20041;-79
2021/04/30 08:16:52;;;;;;;21.33;15.15;;;9.50;99.90;;;;;;5036285;28;20030;-79
2021/04/30 08:19:18;;;;;;;21.63;14.80;;;9.50;99.90;;;;;;5034456;28;20463;-79
2021/04/30 08:21:43;;;;;;;22.63;16.23;;;9.40;99.90;;;;;;5030352;28;20116;-79
2021/04/30 08:24:09;;;;;;;25.80;16.05;;;9.30;99.90;;;;;;5038344;28;20080;-79
2021/04/30 08:26:35;;;;;;;22.50;15.70;;;9.50;99.90;;;;;;5036155;28;20037;-79
2021/04/30 08:29:01;;;;;;;21.27;15.32;;;9.50;99.90;;;;;;5026606;28;20038;-79
2021/04/30 08:31:27;;;;;;;22.77;14.30;;;9.50;99.90;;;;;;5030383;28;20125;-79
2021/04/30 08:33:54;;;;;;;22.63;14.73;;;9.60;99.90;;;;;;5031455;28;20030;-79
2021/04/30 08:36:21;;;;;;;21.83;15.35;;;9.70;99.90;;;;;;5028702;28;20037;-79
2021/04/30 08:38:47;;;;;;;23.40;15.27;;;9.60;99.90;;;;;;5019487;28;20066;-79
2021/04/30 08:41:15;;;;;;;22.95;14.93;;;9.60;99.90;;;;;;5040106;28;20029;-79
2021/04/30 08:43:41;;;;;;;22.00;15.73;;;9.80;99.90;;;;;;5015196;28;20105;-79
2021/04/30 08:46:10;;;;;;;26.05;16.35;;;9.70;99.90;;;;;;5040314;28;20060;-79
2021/04/30 08:48:36;;;;;;;24.73;15.55;;;9.60;99.90;;;;;;5042976;28;20052;-79
2021/04/30 08:51:02;;;;;;;24.75;15.88;;;9.70;99.90;;;;;;5035848;28;20062;-79
2021/04/30 08:53:28;;;;;;;20.30;15.68;;;9.70;99.90;;;;;;5035319;28;20033;-79
2021/04/30 08:55:54;;;;;;;21.60;15.13;;;9.80;99.90;;;;;;5035855;28;20109;-79
2021/04/30 08:58:26;;;;;;;25.95;15.52;;;9.90;99.90;;;;;;5024396;28;20105;-79
2021/04/30 09:00:53;;;;;;;28.20;16.83;;;9.90;99.90;;;;;;5032857;28;20060;-79
2021/04/30 09:03:19;;;;;;;25.30;16.52;;;9.90;99.90;;;;;;5024821;28;20053;-79
2021/04/30 09:06:06;;;;;;;26.40;18.15;;;9.80;99.90;;;;;;5040233;28;20029;-79
2021/04/30 09:08:48;;;;;;;26.23;18.38;;;9.70;99.90;;;;;;4984096;28;20023;-79
2021/04/30 09:11:31;;;;;;;27.73;19.30;;;9.70;99.90;;;;;;5018944;28;20037;-79
2021/04/30 09:14:22;;;;;;;24.92;18.38;;;9.70;99.90;;;;;;5017734;28;20046;-79
2021/04/30 09:17:09;;;;;;;26.80;17.15;;;9.90;99.90;;;;;;4971095;28;20045;-79
2021/04/30 09:19:57;;;;;;;28.98;18.50;;;10.00;99.90;;;;;;4987434;28;20046;-79
2021/04/30 09:22:25;;;;;;;23.80;17.33;;;10.00;99.90;;;;;;5004095;28;20053;-79
2021/04/30 09:24:56;;;;;;;27.08;17.58;;;10.40;99.90;;;;;;5003667;28;20038;-79
2021/04/30 09:27:38;;;;;;;23.42;16.00;;;10.60;99.90;;;;;;4987202;28;20058;-79
2021/04/30 09:30:15;;;;;;;27.05;17.77;;;10.60;99.90;;;;;;5003363;28;20061;-79
2021/04/30 09:33:05;;;;;;;23.60;17.58;;;10.60;99.90;;;;;;4971409;28;20093;-79
2021/04/30 09:35:33;;;;;;;26.27;16.42;;;10.70;99.90;;;;;;4989004;28;20569;-80
2021/04/30 09:37:58;;;;;;;25.20;17.38;;;11.10;99.90;;;;;;5006605;28;20079;-79
2021/04/30 09:40:31;;;;;;;23.55;17.67;;;11.10;99.90;;;;;;5023211;28;20033;-80
2021/04/30 09:43:04;;;;;;;25.40;18.10;;;11.20;99.90;;;;;;5006254;28;20042;-79
2021/04/30 09:45:30;;;;;;;22.83;15.82;;;11.10;99.90;;;;;;5013076;28;20041;-79
2021/04/30 09:47:59;;;;;;;19.95;15.98;;;11.10;99.90;;;;;;5023402;28;20109;-80
2021/04/30 09:50:27;;;;;;;22.17;15.40;;;11.00;99.90;;;;;;5024726;28;20033;-79
2021/04/30 09:52:59;;;;;;;22.95;16.95;;;10.90;99.90;;;;;;5010773;28;20038;-79
2021/04/30 09:55:44;;;;;;;23.23;16.73;;;10.70;99.90;;;;;;5009278;28;20077;-80
2021/04/30 09:58:18;;;;;;;27.17;17.38;;;10.80;99.90;;;;;;5024293;28;20030;-79
2021/04/30 10:00:49;;;;;;;24.13;17.48;;;10.60;99.90;;;;;;5013148;28;20045;-80
2021/04/30 10:03:27;;;;;;;24.15;16.80;;;10.50;99.90;;;;;;5044990;28;20037;-80
2021/04/30 10:06:05;;;;;;;21.42;15.90;;;10.40;99.90;;;;;;5043255;28;20051;-79
2021/04/30 10:08:31;;;;;;;19.40;15.80;;;10.60;99.90;;;;;;5043968;28;20060;-79
2021/04/30 10:10:57;;;;;;;22.67;16.05;;;10.60;99.90;;;;;;5043628;28;20113;-79
2021/04/30 10:13:23;;;;;;;21.77;13.98;;;10.70;99.90;;;;;;5027462;28;20052;-79
2021/04/30 10:15:49;;;;;;;19.00;16.02;;;10.80;99.90;;;;;;5043208;28;20064;-80
2021/04/30 10:18:18;;;;;;;19.17;15.10;;;10.90;99.90;;;;;;5027157;28;20033;-79
2021/04/30 10:20:47;;;;;;;19.98;15.15;;;10.80;99.90;;;;;;5045194;28;20032;-79
2021/04/30 10:23:19;;;;;;;21.48;16.13;;;10.90;99.90;;;;;;5043655;28;20544;-80
2021/04/30 10:25:48;;;;;;;24.52;16.65;;;10.90;99.90;;;;;;5043465;28;20030;-79
2021/04/30 10:28:17;;;;;;;20.02;14.93;;;10.90;99.90;;;;;;5026972;28;20033;-79
2021/04/30 10:31:18;;;;;;;24.13;15.45;;;11.10;99.90;;;;;;5043327;28;20037;-80
2021/04/30 10:33:50;;;;;;;19.17;13.13;;;11.20;99.90;;;;;;4990671;28;20058;-80
2021/04/30 10:36:28;;;;;;;19.48;14.88;;;11.30;99.90;;;;;;5023727;28;20050;-79
2021/04/30 10:38:55;;;;;;;20.88;13.98;;;11.30;99.90;;;;;;5023611;28;20025;-80
2021/04/30 10:41:42;;;;;;;17.83;13.57;;;11.60;99.90;;;;;;5025206;28;20037;-80
2021/04/30 10:44:17;;;;;;;17.80;13.52;;;11.40;99.90;;;;;;5032548;28;20042;-79
2021/04/30 10:46:44;;;;;;;18.42;13.38;;;11.50;99.90;;;;;;5039799;28;20042;-79
2021/04/30 10:49:15;;;;;;;15.73;13.32;;;11.40;99.90;;;;;;5023581;28;20030;-80
2021/04/30 10:51:41;;;;;;;21.30;15.57;;;11.10;99.90;;;;;;5023650;28;20048;-79
2021/04/30 10:54:30;;;;;;;25.73;17.20;;;10.60;99.90;;;;;;5045769;28;20112;-80
2021/04/30 10:57:00;;;;;;;26.75;17.35;;;10.50;99.90;;;;;;5040159;28;20044;-79
2021/04/30 10:59:35;;;;;;;19.58;13.73;;;10.40;99.90;;;;;;5027077;28;20036;-80
2021/04/30 11:02:15;;;;;;;27.02;15.38;;;10.40;99.90;;;;;;5026856;28;20129;-80
2021/04/30 11:05:07;;;;;;;22.05;15.52;;;10.30;99.90;;;;;;5010608;28;20499;-80
2021/04/30 11:07:38;;;;;;;20.63;15.10;;;10.50;99.90;;;;;;5007649;28;20046;-80
2021/04/30 11:10:23;;;;;;;24.50;15.82;;;10.60;99.90;;;;;;5026148;28;20029;-80
2021/04/30 11:13:00;;;;;;;25.25;17.90;;;11.00;99.90;;;;;;5042939;28;20029;-80
2021/04/30 11:15:45;;;;;;;24.42;17.73;;;11.10;99.90;;;;;;5042685;28;20054;-80
2021/04/30 11:18:18;;;;;;;21.85;17.95;;;11.30;99.90;;;;;;5026356;28;20141;-80
2021/04/30 11:21:06;;;;;;;22.50;16.75;;;11.60;99.90;;;;;;5043240;28;20026;-79
2021/04/30 11:23:35;;;;;;;22.75;16.50;;;11.70;99.90;;;;;;5026130;28;20045;-79
2021/04/30 11:26:03;;;;;;;25.50;18.55;;;11.80;99.90;;;;;;5042755;28;20096;-79
2021/04/30 11:28:32;;;;;;;24.33;17.27;;;11.50;99.90;;;;;;5029162;28;20033;-80
2021/04/30 11:31:06;;;;;;;21.37;15.17;;;11.60;99.90;;;;;;5063209;28;20034;-80
2021/04/30 11:33:33;;;;;;;22.60;17.27;;;11.50;99.90;;;;;;5046332;28;20030;-80
2021/04/30 11:36:00;;;;;;;24.02;17.02;;;11.80;99.90;;;;;;5029983;28;20041;-80
2021/04/30 11:38:37;;;;;;;22.95;17.38;;;12.00;99.90;;;;;;5029489;28;20033;-79
2021/04/30 11:41:04;;;;;;;19.45;13.68;;;11.80;99.90;;;;;;5030022;28;20030;-80
2021/04/30 11:43:29;;;;;;;22.35;17.92;;;12.00;99.90;;;;;;5029772;28;20029;-80
2021/04/30 11:45:56;;;;;;;19.50;15.15;;;11.70;99.90;;;;;;5045821;28;20056;-80
2021/04/30 11:48:33;;;;;;;21.77;16.50;;;11.60;99.90;;;;;;5062474;28;20037;-80
2021/04/30 11:51:10;;;;;;;18.60;13.80;;;11.90;99.90;;;;;;5046079;28;20045;-80
2021/04/30 11:53:38;;;;;;;18.85;14.63;;;12.10;99.90;;;;;;5062408;28;20033;-80
2021/04/30 11:56:05;;;;;;;20.75;15.50;;;12.10;99.90;;;;;;5046127;28;20064;-80
2021/04/30 11:58:43;;;;;;;18.88;15.55;;;12.10;99.90;;;;;;5046017;28;20029;-80
2021/04/30 12:01:13;;;;;;;21.23;15.20;;;12.60;99.90;;;;;;5046138;28;20057;-80
2021/04/30 12:03:47;;;;;;;19.23;14.93;;;12.90;99.90;;;;;;5046046;28;20029;-80
2021/04/30 12:06:19;;;;;;;19.30;15.38;;;13.00;99.90;;;;;;5045574;28;20140;-80
2021/04/30 12:08:46;;;;;;;20.67;16.92;;;12.70;99.90;;;;;;5046698;28;20034;-80
2021/04/30 12:11:28;;;;;;;16.55;14.00;;;12.30;99.90;;;;;;5062636;28;20205;-80
2021/04/30 12:13:57;;;;;;;19.98;15.30;;;12.60;99.90;;;;;;5045719;28;20051;-80
2021/04/30 12:16:23;;;;;;;18.77;14.93;;;12.60;99.90;;;;;;5004721;28;20038;-80
2021/04/30 12:18:52;;;;;;;15.27;12.88;;;13.10;99.90;;;;;;5032355;28;20028;-80
2021/04/30 12:21:29;;;;;;;17.65;14.32;;;13.90;99.90;;;;;;5038613;28;20071;-80
2021/04/30 12:23:56;;;;;;;16.48;13.10;;;14.10;99.90;;;;;;5042857;28;20029;-80
2021/04/30 12:26:29;;;;;;;15.10;10.93;;;13.80;99.90;;;;;;5035263;28;20097;-80
2021/04/30 12:28:56;;;;;;;17.13;12.95;;;14.00;99.90;;;;;;5031857;28;20060;-80
2021/04/30 12:31:23;;;;;;;15.60;12.55;;;14.00;99.90;;;;;;5038263;28;20093;-80
2021/04/30 12:33:49;;;;;;;15.52;12.23;;;13.50;99.90;;;;;;5040022;28;20042;-80
2021/04/30 12:36:22;;;;;;;13.20;10.68;;;14.00;99.90;;;;;;5041134;28;20091;-80
2021/04/30 12:38:53;;;;;;;11.02;9.40;;;15.00;99.90;;;;;;5022133;28;20052;-80